createdAt,value
2022-07-30T00:00:40.570Z,3.20
2022-07-30T00:03:09.030Z,4.97
2022-07-30T00:05:37.384Z,4.20
2022-07-30T00:08:05.953Z,4.07
2022-07-30T00:10:34.341Z,4.07
2022-07-30T00:13:02.711Z,5.03
2022-07-30T00:15:31.242Z,4.68
2022-07-30T00:18:01.002Z,4.32
2022-07-30T00:20:29.658Z,3.45
2022-07-30T00:22:58.320Z,4.10
2022-07-30T00:25:26.884Z,3.83
2022-07-30T00:27:55.270Z,3.60
2022-07-30T00:30:23.871Z,4.90
2022-07-30T00:32:52.500Z,5.25
2022-07-30T00:35:22.364Z,6.55
2022-07-30T00:37:50.809Z,5.40
2022-07-30T00:40:19.300Z,6.10
2022-07-30T00:42:48.904Z,4.68
2022-07-30T00:45:18.513Z,3.47
2022-07-30T00:47:47.120Z,4.13
2022-07-30T00:50:16.034Z,6.32
2022-07-30T00:52:47.557Z,3.00
2022-07-30T00:55:16.678Z,4.07
2022-07-30T00:57:45.657Z,4.75
2022-07-30T01:00:17.046Z,3.97
2022-07-30T01:02:45.697Z,3.42
2022-07-30T01:05:14.286Z,6.82
2022-07-30T01:07:42.994Z,4.22
2022-07-30T01:10:16.160Z,6.70
2022-07-30T01:12:45.271Z,7.05
2022-07-30T01:15:14.081Z,4.85
2022-07-30T01:17:42.557Z,3.17
2022-07-30T01:20:14.621Z,4.22
2022-07-30T01:22:52.631Z,4.57
2022-07-30T01:25:29.730Z,3.05
2022-07-30T01:28:01.304Z,8.00
2022-07-30T01:30:32.658Z,4.20
2022-07-30T01:33:04.530Z,4.53
2022-07-30T01:35:34.653Z,3.53
2022-07-30T01:38:05.776Z,4.65
2022-07-30T01:40:34.545Z,4.47
2022-07-30T01:43:04.528Z,6.65
2022-07-30T01:45:41.391Z,4.72
2022-07-30T01:48:14.136Z,6.20
2022-07-30T01:50:45.498Z,3.50
2022-07-30T01:53:16.225Z,7.35
2022-07-30T01:55:45.313Z,5.25
2022-07-30T01:58:15.540Z,4.45
2022-07-30T02:00:45.026Z,4.40
2022-07-30T02:03:13.686Z,4.35
2022-07-30T02:05:43.035Z,5.30
2022-07-30T02:08:14.365Z,4.88
2022-07-30T02:10:45.391Z,5.75
2022-07-30T02:13:17.988Z,4.90
2022-07-30T02:15:51.196Z,3.72
2022-07-30T02:18:24.705Z,5.93
2022-07-30T02:20:57.988Z,8.90
2022-07-30T02:23:28.241Z,4.93
2022-07-30T02:25:58.299Z,5.70
2022-07-30T02:28:29.179Z,6.18
2022-07-30T02:31:01.558Z,7.68
2022-07-30T02:33:41.227Z,5.55
2022-07-30T02:36:17.922Z,8.68
2022-07-30T02:38:47.999Z,7.32
2022-07-30T02:41:16.832Z,5.70
2022-07-30T02:43:47.300Z,5.50
2022-07-30T02:48:44.409Z,10.40
2022-07-30T02:51:13.969Z,3.70
2022-07-30T02:53:44.572Z,7.40
2022-07-30T02:56:15.973Z,6.80
2022-07-30T02:58:46.968Z,6.20
2022-07-30T03:01:17.133Z,9.25
2022-07-30T03:03:46.582Z,6.68
2022-07-30T03:06:16.163Z,7.57
2022-07-30T03:08:45.331Z,11.47
2022-07-30T03:11:14.645Z,9.90
2022-07-30T03:13:42.826Z,6.38
2022-07-30T03:16:13.488Z,6.95
2022-07-30T03:18:43.154Z,7.07
2022-07-30T03:21:12.156Z,7.18
2022-07-30T03:23:41.396Z,4.40
2022-07-30T03:26:10.312Z,5.28
2022-07-30T03:28:40.361Z,3.97
2022-07-30T03:31:10.650Z,4.00
2022-07-30T03:33:42.099Z,4.35
2022-07-30T03:36:11.638Z,7.05
2022-07-30T03:38:41.243Z,4.20
2022-07-30T03:41:09.790Z,4.47
2022-07-30T03:43:39.999Z,6.75
2022-07-30T03:46:08.876Z,5.78
2022-07-30T03:48:37.967Z,5.05
2022-07-30T03:51:10.149Z,4.68
2022-07-30T03:53:39.206Z,6.10
2022-07-30T03:56:08.327Z,5.05
2022-07-30T03:58:38.583Z,5.03
2022-07-30T04:01:07.095Z,4.88
2022-07-30T04:03:35.652Z,7.15
2022-07-30T04:06:04.192Z,6.50
2022-07-30T04:08:34.077Z,7.13
2022-07-30T04:11:02.501Z,6.82
2022-07-30T04:13:30.901Z,7.57
2022-07-30T04:16:38.199Z,7.47
2022-07-30T04:18:52.992Z,5.22
2022-07-30T04:21:22.387Z,5.45
2022-07-30T04:24:02.931Z,6.00
2022-07-30T04:26:35.501Z,5.78
2022-07-30T04:29:06.100Z,5.72
2022-07-30T04:31:39.907Z,5.20
2022-07-30T04:34:09.846Z,8.02
2022-07-30T04:36:38.242Z,5.18
2022-07-30T04:39:08.350Z,9.48
2022-07-30T04:41:49.545Z,6.20
2022-07-30T04:44:19.537Z,5.70
2022-07-30T04:46:48.075Z,6.75
2022-07-30T04:49:17.536Z,5.78
2022-07-30T04:51:46.456Z,4.68
2022-07-30T04:54:17.292Z,5.00
2022-07-30T04:56:52.484Z,8.13
2022-07-30T04:59:25.802Z,4.95
2022-07-30T05:01:55.233Z,6.85
2022-07-30T05:04:24.127Z,8.10
2022-07-30T05:06:53.133Z,4.50
2022-07-30T05:09:24.072Z,5.20
2022-07-30T05:11:52.794Z,4.90
2022-07-30T05:14:21.216Z,5.55
2022-07-30T05:16:49.783Z,6.47
2022-07-30T05:19:18.888Z,7.30
2022-07-30T05:21:47.339Z,4.57
2022-07-30T05:24:16.033Z,4.97
2022-07-30T05:26:46.016Z,4.07
2022-07-30T05:29:19.919Z,5.78
2022-07-30T05:31:49.113Z,5.80
2022-07-30T05:34:17.877Z,3.60
2022-07-30T05:36:46.324Z,5.03
2022-07-30T05:39:16.353Z,5.55
2022-07-30T05:41:46.161Z,5.00
2022-07-30T05:44:14.495Z,4.78
2022-07-30T05:46:42.991Z,7.32
2022-07-30T05:49:11.602Z,6.72
2022-07-30T05:51:40.283Z,5.03
2022-07-30T05:54:09.934Z,4.82
2022-07-30T05:56:38.300Z,5.35
2022-07-30T05:59:08.454Z,5.82
2022-07-30T06:01:36.843Z,5.65
2022-07-30T06:04:05.515Z,6.70
2022-07-30T06:06:33.927Z,5.03
2022-07-30T06:09:02.330Z,6.63
2022-07-30T06:11:30.702Z,4.88
2022-07-30T06:13:59.028Z,6.90
2022-07-30T06:16:28.856Z,4.78
2022-07-30T06:18:57.247Z,5.95
2022-07-30T06:21:25.595Z,4.38
2022-07-30T06:23:53.920Z,4.85
2022-07-30T06:26:22.514Z,7.65
2022-07-30T06:28:50.828Z,5.45
2022-07-30T06:31:19.395Z,5.68
2022-07-30T06:33:49.130Z,5.32
2022-07-30T06:36:17.575Z,7.82
2022-07-30T06:38:45.926Z,4.47
2022-07-30T06:41:15.815Z,7.07
2022-07-30T06:43:44.271Z,5.80
2022-07-30T06:46:12.734Z,7.13
2022-07-30T06:48:42.367Z,7.10
2022-07-30T06:51:12.166Z,6.57
2022-07-30T06:53:42.642Z,6.68
2022-07-30T06:56:11.481Z,5.90
2022-07-30T06:58:40.317Z,7.13
2022-07-30T07:01:11.365Z,10.80
2022-07-30T07:03:40.816Z,7.18
2022-07-30T07:06:09.436Z,5.63
2022-07-30T07:08:39.699Z,6.40
2022-07-30T07:11:08.175Z,6.70
2022-07-30T07:13:36.734Z,6.68
2022-07-30T07:16:05.588Z,8.82
2022-07-30T07:18:33.950Z,8.40
2022-07-30T07:21:02.324Z,7.05
2022-07-30T07:23:39.768Z,8.38
2022-07-30T07:26:12.755Z,6.90
2022-07-30T07:28:41.374Z,6.65
2022-07-30T07:31:10.425Z,5.82
2022-07-30T07:33:40.535Z,5.30
2022-07-30T07:36:09.026Z,7.28
2022-07-30T07:38:37.959Z,6.20
2022-07-30T07:41:06.560Z,9.55
2022-07-30T07:43:36.266Z,7.05
2022-07-30T07:46:04.857Z,7.88
2022-07-30T07:48:33.334Z,6.78
2022-07-30T07:51:01.811Z,7.50
2022-07-30T07:53:30.195Z,8.73
2022-07-30T07:55:58.805Z,9.60
2022-07-30T07:58:27.444Z,7.72
2022-07-30T08:00:57.203Z,8.98
2022-07-30T08:03:25.592Z,7.43
2022-07-30T08:06:04.687Z,6.80
2022-07-30T08:08:36.646Z,7.32
2022-07-30T08:13:49.271Z,8.88
2022-07-30T08:16:22.783Z,10.02
2022-07-30T08:18:51.283Z,10.52
2022-07-30T08:21:19.666Z,8.77
2022-07-30T08:23:48.063Z,7.68
2022-07-30T08:26:16.448Z,7.95
2022-07-30T08:28:45.714Z,10.32
2022-07-30T08:31:14.444Z,9.63
2022-07-30T08:33:44.170Z,9.55
2022-07-30T08:36:12.569Z,8.20
2022-07-30T08:38:40.993Z,9.88
2022-07-30T08:41:09.449Z,9.75
2022-07-30T08:43:38.280Z,7.65
2022-07-30T08:46:10.937Z,8.35
2022-07-30T08:48:39.650Z,9.95
2022-07-30T08:51:09.594Z,8.38
2022-07-30T08:53:38.112Z,8.00
2022-07-30T08:56:08.993Z,8.30
2022-07-30T08:58:37.391Z,9.02
2022-07-30T09:01:07.019Z,7.28
2022-07-30T09:03:35.771Z,8.60
2022-07-30T09:06:13.960Z,8.52
2022-07-30T09:08:42.447Z,7.03
2022-07-30T09:11:10.974Z,7.53
2022-07-30T09:13:41.786Z,8.07
2022-07-30T09:16:20.731Z,8.95
2022-07-30T09:18:49.755Z,10.27
2022-07-30T09:21:23.283Z,6.60
2022-07-30T09:23:59.130Z,8.30
2022-07-30T09:26:27.862Z,6.22
2022-07-30T09:28:56.662Z,7.40
2022-07-30T09:31:25.144Z,8.55
2022-07-30T09:33:53.577Z,7.90
2022-07-30T09:36:23.296Z,7.47
2022-07-30T09:38:53.159Z,6.95
2022-07-30T09:41:39.108Z,7.05
2022-07-30T09:44:08.386Z,8.10
2022-07-30T09:46:45.089Z,5.97
2022-07-30T09:49:17.444Z,6.53
2022-07-30T09:51:54.375Z,5.85
2022-07-30T09:54:26.825Z,7.60
2022-07-30T09:57:25.690Z,7.47
2022-07-30T09:59:57.586Z,9.13
2022-07-30T10:02:32.816Z,7.82
2022-07-30T10:05:20.379Z,5.90
2022-07-30T10:07:52.454Z,5.25
2022-07-30T10:10:25.505Z,6.07
2022-07-30T10:12:56.366Z,6.43
2022-07-30T10:15:26.627Z,5.53
2022-07-30T10:17:56.533Z,5.88
2022-07-30T10:20:26.458Z,4.78
2022-07-30T10:22:56.693Z,6.95
2022-07-30T10:25:28.138Z,5.95
2022-07-30T10:27:57.873Z,7.28
2022-07-30T10:30:28.021Z,5.15
2022-07-30T10:33:00.014Z,4.50
2022-07-30T10:35:34.535Z,4.30
2022-07-30T10:38:13.905Z,5.80
2022-07-30T10:40:49.228Z,5.57
2022-07-30T10:43:52.826Z,4.78
2022-07-30T10:46:33.514Z,5.43
2022-07-30T10:49:17.461Z,3.63
2022-07-30T10:51:48.791Z,3.28
2022-07-30T10:57:31.964Z,6.40
2022-07-30T11:00:15.558Z,4.43
2022-07-30T11:03:17.985Z,3.88
2022-07-30T11:05:48.815Z,4.32
2022-07-30T11:08:37.655Z,5.55
2022-07-30T11:12:01.034Z,5.53
2022-07-30T11:15:06.659Z,3.20
2022-07-30T11:18:12.253Z,5.22
2022-07-30T11:20:48.467Z,3.88
2022-07-30T11:23:39.581Z,3.88
2022-07-30T11:26:14.253Z,5.35
2022-07-30T11:28:44.713Z,3.80
2022-07-30T11:34:30.708Z,3.60
2022-07-30T11:37:22.192Z,3.00
2022-07-30T11:40:13.786Z,5.75
2022-07-30T11:42:43.562Z,5.40
2022-07-30T11:45:29.495Z,3.95
2022-07-30T11:48:00.311Z,4.15
2022-07-30T11:50:32.014Z,3.10
2022-07-30T11:53:01.694Z,4.35
2022-07-30T11:55:32.642Z,4.80
2022-07-30T11:58:02.165Z,6.03
2022-07-30T12:00:36.935Z,3.63
2022-07-30T12:03:09.911Z,4.30
2022-07-30T12:05:40.466Z,6.75
2022-07-30T12:08:09.176Z,3.65
2022-07-30T12:10:59.931Z,3.85
2022-07-30T12:13:45.314Z,5.03
2022-07-30T12:16:15.914Z,2.40
2022-07-30T12:18:44.584Z,3.17
2022-07-30T12:21:16.169Z,2.78
2022-07-30T12:23:52.879Z,4.38
2022-07-30T12:26:22.532Z,3.33
2022-07-30T12:28:51.086Z,3.15
2022-07-30T12:31:19.501Z,2.65
2022-07-30T12:33:48.027Z,3.10
2022-07-30T12:36:27.723Z,3.13
2022-07-30T12:38:58.019Z,2.88
2022-07-30T12:41:41.856Z,2.70
2022-07-30T12:44:10.508Z,3.38
2022-07-30T12:46:40.972Z,3.97
2022-07-30T12:49:17.498Z,3.58
2022-07-30T12:52:00.292Z,3.95
2022-07-30T12:54:29.879Z,3.08
2022-07-30T12:57:00.662Z,4.32
2022-07-30T12:59:29.966Z,3.45
2022-07-30T13:02:00.501Z,3.10
2022-07-30T13:04:29.645Z,5.47
2022-07-30T13:07:07.044Z,4.80
2022-07-30T13:09:35.698Z,3.20
2022-07-30T13:12:04.459Z,3.50
2022-07-30T13:14:32.999Z,3.78
2022-07-30T13:17:04.001Z,2.67
2022-07-30T13:19:32.960Z,2.85
2022-07-30T13:22:01.297Z,3.15
2022-07-30T13:24:31.059Z,3.75
2022-07-30T13:26:59.451Z,2.53
2022-07-30T13:29:27.779Z,3.75
2022-07-30T13:31:56.169Z,3.58
2022-07-30T13:34:24.536Z,2.58
2022-07-30T13:36:52.909Z,3.03
2022-07-30T13:39:21.282Z,3.08
2022-07-30T13:41:51.068Z,3.20
2022-07-30T13:44:19.400Z,2.75
2022-07-30T13:46:47.814Z,2.88
2022-07-30T13:49:16.270Z,2.72
2022-07-30T13:51:44.629Z,1.30
2022-07-30T13:54:13.912Z,1.98
2022-07-30T13:56:42.478Z,5.15
2022-07-30T13:59:12.469Z,3.25
2022-07-30T14:01:40.901Z,3.28
2022-07-30T14:04:09.508Z,3.50
2022-07-30T14:06:37.875Z,2.15
2022-07-30T14:09:06.412Z,2.50
2022-07-30T14:11:35.156Z,2.92
2022-07-30T14:14:03.514Z,4.47
2022-07-30T14:16:45.105Z,3.85
2022-07-30T14:19:23.032Z,4.63
2022-07-30T14:21:53.951Z,2.53
2022-07-30T14:24:22.496Z,2.97
2022-07-30T14:26:58.880Z,5.88
2022-07-30T14:29:27.658Z,3.03
2022-07-30T14:31:57.564Z,2.58
2022-07-30T14:34:25.952Z,2.65
2022-07-30T14:36:54.303Z,3.85
2022-07-30T14:39:22.875Z,6.22
2022-07-30T14:41:52.404Z,2.67
2022-07-30T14:44:24.426Z,3.00
2022-07-30T14:46:53.185Z,2.92
2022-07-30T14:49:24.151Z,3.88
2022-07-30T14:51:52.878Z,4.15
2022-07-30T14:54:21.660Z,5.13
2022-07-30T14:56:53.603Z,2.92
2022-07-30T14:59:24.773Z,3.40
2022-07-30T15:01:53.274Z,4.07
2022-07-30T15:04:23.382Z,2.80
2022-07-30T15:06:51.858Z,3.97
2022-07-30T15:09:20.853Z,4.15
2022-07-30T15:12:23.604Z,5.20
2022-07-30T15:14:38.571Z,3.30
2022-07-30T15:17:08.564Z,3.92
2022-07-30T15:19:50.354Z,2.80
2022-07-30T15:22:19.872Z,2.58
2022-07-30T15:24:48.927Z,3.00
2022-07-30T15:27:17.623Z,4.05
2022-07-30T15:29:46.083Z,3.50
2022-07-30T15:32:14.512Z,4.55
2022-07-30T15:34:44.257Z,4.18
2022-07-30T15:37:12.612Z,4.72
2022-07-30T15:39:41.030Z,2.30
2022-07-30T15:42:09.510Z,3.65
2022-07-30T15:44:42.277Z,2.10
2022-07-30T15:47:16.762Z,3.38
2022-07-30T15:49:46.534Z,3.65
2022-07-30T15:52:14.915Z,3.90
2022-07-30T15:54:43.500Z,2.70
2022-07-30T15:57:11.849Z,5.35
2022-07-30T15:59:40.252Z,4.40
2022-07-30T16:02:08.622Z,2.15
2022-07-30T16:04:37.093Z,4.47
2022-07-30T16:07:07.939Z,3.03
2022-07-30T16:09:36.317Z,5.38
2022-07-30T16:12:05.570Z,3.42
2022-07-30T16:14:34.187Z,3.83
2022-07-30T16:17:02.871Z,4.43
2022-07-30T16:19:31.220Z,6.05
2022-07-30T16:21:59.903Z,2.63
2022-07-30T16:24:29.964Z,3.78
2022-07-30T16:26:58.458Z,3.72
2022-07-30T16:29:27.162Z,4.32
2022-07-30T16:31:55.622Z,3.92
2022-07-30T16:34:26.723Z,3.55
2022-07-30T16:36:55.743Z,2.58
2022-07-30T16:39:24.106Z,4.35
2022-07-30T16:41:53.876Z,3.72
2022-07-30T16:44:22.283Z,3.95
2022-07-30T16:46:50.769Z,3.33
2022-07-30T16:49:19.124Z,4.03
2022-07-30T16:51:47.486Z,3.35
2022-07-30T16:54:15.863Z,4.18
2022-07-30T16:56:44.228Z,3.03
2022-07-30T16:59:14.761Z,3.75
2022-07-30T17:01:43.146Z,5.35
2022-07-30T17:04:11.540Z,7.47
2022-07-30T17:06:41.105Z,5.35
2022-07-30T17:09:09.522Z,3.15
2022-07-30T17:11:46.513Z,3.28
2022-07-30T17:14:17.966Z,3.58
2022-07-30T17:16:46.351Z,2.67
2022-07-30T17:19:14.707Z,2.50
2022-07-30T17:21:43.075Z,4.57
2022-07-30T17:24:13.587Z,5.20
2022-07-30T17:26:43.906Z,3.60
2022-07-30T17:29:14.687Z,3.17
2022-07-30T17:31:45.817Z,3.85
2022-07-30T17:34:16.210Z,3.83
2022-07-30T17:36:52.649Z,3.88
2022-07-30T17:40:27.225Z,3.70
2022-07-30T17:42:11.202Z,5.43
2022-07-30T17:44:41.100Z,5.95
2022-07-30T17:47:14.515Z,3.45
2022-07-30T17:49:43.658Z,5.38
2022-07-30T17:52:12.098Z,4.32
2022-07-30T17:54:40.791Z,5.72
2022-07-30T17:57:09.194Z,4.07
2022-07-30T17:59:37.647Z,3.90
2022-07-30T18:02:06.716Z,5.00
2022-07-30T18:04:36.873Z,3.72
2022-07-30T18:07:05.770Z,3.35
2022-07-30T18:09:39.074Z,3.10
2022-07-30T18:12:09.319Z,2.95
2022-07-30T18:14:37.740Z,2.92
2022-07-30T18:17:09.103Z,5.53
2022-07-30T18:19:42.296Z,3.50
2022-07-30T18:22:10.687Z,6.13
2022-07-30T18:24:43.713Z,5.07
2022-07-30T18:27:12.851Z,2.63
2022-07-30T18:29:41.357Z,3.33
2022-07-30T18:32:09.772Z,6.03
2022-07-30T18:34:38.307Z,4.15
2022-07-30T18:37:08.090Z,3.78
2022-07-30T18:39:36.487Z,6.35
2022-07-30T18:42:05.574Z,4.47
2022-07-30T18:44:34.201Z,3.28
2022-07-30T18:47:02.610Z,3.75
2022-07-30T18:49:38.362Z,3.20
2022-07-30T18:52:08.570Z,5.28
2022-07-30T18:54:37.844Z,3.72
2022-07-30T18:57:08.165Z,3.95
2022-07-30T18:59:39.903Z,4.78
2022-07-30T19:02:08.430Z,6.25
2022-07-30T19:04:37.443Z,4.38
2022-07-30T19:07:07.387Z,3.65
2022-07-30T19:09:37.198Z,3.00
2022-07-30T19:12:06.397Z,5.57
2022-07-30T19:14:35.205Z,4.25
2022-07-30T19:17:03.637Z,4.03
2022-07-30T19:19:42.626Z,4.03
2022-07-30T19:22:10.997Z,3.63
2022-07-30T19:24:40.784Z,4.28
2022-07-30T19:27:13.970Z,4.03
2022-07-30T19:29:43.497Z,4.03
2022-07-30T19:32:12.198Z,4.90
2022-07-30T19:34:43.365Z,3.50
2022-07-30T19:37:12.273Z,4.15
2022-07-30T19:40:05.668Z,4.68
2022-07-30T19:42:30.629Z,4.47
2022-07-30T19:45:01.277Z,3.22
2022-07-30T19:47:35.346Z,4.32
2022-07-30T19:50:09.996Z,4.07
2022-07-30T19:52:38.617Z,6.95
2022-07-30T19:55:17.208Z,3.88
2022-07-30T20:00:26.910Z,5.82
2022-07-30T20:02:55.281Z,3.97
2022-07-30T20:05:24.887Z,3.75
2022-07-30T20:07:53.449Z,4.43
2022-07-30T20:10:26.400Z,7.50
2022-07-30T20:12:58.044Z,6.47
2022-07-30T20:15:27.019Z,4.60
2022-07-30T20:17:58.542Z,4.50
2022-07-30T20:20:26.973Z,6.80
2022-07-30T20:22:55.442Z,5.00
2022-07-30T20:25:25.579Z,5.53
2022-07-30T20:27:53.969Z,4.80
2022-07-30T20:30:25.486Z,6.65
2022-07-30T20:32:54.372Z,9.60
2022-07-30T20:37:56.418Z,10.32
2022-07-30T20:40:27.150Z,5.10
2022-07-30T20:42:55.868Z,6.38
2022-07-30T20:45:25.344Z,9.40
2022-07-30T20:48:17.466Z,4.60
2022-07-30T20:50:53.754Z,5.65
2022-07-30T20:53:24.125Z,5.43
2022-07-30T20:56:03.350Z,9.50
2022-07-30T20:58:31.725Z,7.10
2022-07-30T21:01:01.944Z,5.68
2022-07-30T21:03:33.252Z,4.93
2022-07-30T21:06:01.611Z,7.35
2022-07-30T21:08:29.982Z,4.75
2022-07-30T21:11:00.229Z,8.55
2022-07-30T21:13:30.130Z,7.60
2022-07-30T21:16:02.929Z,6.30
2022-07-30T21:18:33.053Z,5.38
2022-07-30T21:21:05.500Z,5.33
2022-07-30T21:23:34.318Z,5.97
2022-07-30T21:26:06.951Z,5.93
2022-07-30T21:28:40.387Z,7.53
2022-07-30T21:31:09.212Z,6.93
2022-07-30T21:33:37.882Z,6.43
2022-07-30T21:38:55.718Z,5.57
2022-07-30T21:41:39.954Z,5.18
2022-07-30T21:44:10.345Z,7.18
2022-07-30T21:46:40.482Z,5.63
2022-07-30T21:49:10.285Z,7.07
2022-07-30T21:51:40.014Z,7.95
2022-07-30T21:54:08.684Z,11.15
2022-07-30T21:56:41.479Z,6.97
2022-07-30T21:59:11.595Z,7.78
2022-07-30T22:01:47.689Z,10.48
2022-07-30T22:04:16.522Z,7.60
2022-07-30T22:06:45.084Z,6.90
2022-07-30T22:09:19.242Z,6.00
2022-07-30T22:12:06.349Z,15.02
2022-07-30T22:14:39.172Z,6.40
2022-07-30T22:17:22.408Z,6.03
2022-07-30T22:19:52.142Z,5.80
2022-07-30T22:22:27.150Z,6.63
2022-07-30T22:24:59.942Z,7.03
2022-07-30T22:27:39.852Z,6.43
2022-07-30T22:30:13.872Z,5.80
2022-07-30T22:32:42.936Z,8.30
2022-07-30T22:35:11.753Z,7.82
2022-07-30T22:37:40.127Z,6.53
2022-07-30T22:40:09.139Z,7.70
2022-07-30T22:42:49.808Z,7.57
2022-07-30T22:45:42.253Z,8.50
2022-07-30T22:48:10.202Z,9.45
2022-07-30T22:50:40.222Z,6.97
2022-07-30T22:54:02.489Z,11.07
2022-07-30T22:55:58.756Z,8.20
2022-07-30T22:58:28.775Z,7.07
2022-07-30T23:03:27.715Z,7.47
2022-07-30T23:05:57.200Z,6.38
2022-07-30T23:08:29.373Z,9.27
2022-07-30T23:10:59.778Z,8.02
2022-07-30T23:12:32.449Z,7.75
2022-07-30T23:13:28.839Z,7.82
2022-07-30T23:15:57.225Z,7.00
2022-07-30T23:18:26.935Z,8.32
2022-07-30T23:20:59.993Z,6.53
2022-07-30T23:23:30.972Z,7.07
2022-07-30T23:26:03.084Z,6.97
2022-07-30T23:28:31.705Z,8.38
2022-07-30T23:31:00.250Z,7.32
2022-07-30T23:33:30.754Z,8.98
2022-07-30T23:38:28.834Z,8.15
2022-07-30T23:41:01.229Z,9.13
2022-07-30T23:43:30.005Z,11.02
2022-07-30T23:45:58.573Z,8.27
2022-07-30T23:48:27.041Z,10.13
2022-07-30T23:50:56.780Z,10.00
2022-07-30T23:53:25.443Z,11.90
2022-07-30T23:55:53.895Z,14.35
2022-07-30T23:58:22.937Z,13.35
